sensor_id;sensor_type;location;lat;lon;timestamp;P1;durP1;ratioP1;P2;durP2;ratioP2
56075;SDS011;41951;49.022;12.066;2023-01-15T00:00:59;7.80;;;3.30;;
56075;SDS011;41951;49.022;12.066;2023-01-15T00:03:25;6.07;;;3.30;;
56075;SDS011;41951;49.022;12.066;2023-01-15T00:05:51;7.05;;;3.47;;
56075;SDS011;41951;49.022;12.066;2023-01-15T00:08:17;8.90;;;3.50;;
56075;SDS011;41951;49.022;12.066;2023-01-15T00:10:43;5.97;;;3.50;;
56075;SDS011;41951;49.022;12.066;2023-01-15T00:13:08;6.43;;;3.50;;
56075;SDS011;41951;49.022;12.066;2023-01-15T00:15:34;4.78;;;2.92;;
56075;SDS011;41951;49.022;12.066;2023-01-15T00:18:00;7.72;;;3.30;;
56075;SDS011;41951;49.022;12.066;2023-01-15T00:20:26;5.95;;;3.10;;
56075;SDS011;41951;49.022;12.066;2023-01-15T00:22:52;6.85;;;3.75;;
56075;SDS011;41951;49.022;12.066;2023-01-15T00:25:17;5.60;;;3.08;;
56075;SDS011;41951;49.022;12.066;2023-01-15T00:28:01;5.88;;;3.05;;
56075;SDS011;41951;49.022;12.066;2023-01-15T00:30:27;7.47;;;2.95;;
56075;SDS011;41951;49.022;12.066;2023-01-15T00:32:53;7.13;;;3.20;;
56075;SDS011;41951;49.022;12.066;2023-01-15T00:35:19;5.82;;;2.70;;
56075;SDS011;41951;49.022;12.066;2023-01-15T00:37:47;7.03;;;2.88;;
56075;SDS011;41951;49.022;12.066;2023-01-15T00:40:14;7.90;;;3.17;;
56075;SDS011;41951;49.022;12.066;2023-01-15T00:42:41;6.28;;;3.00;;
56075;SDS011;41951;49.022;12.066;2023-01-15T00:45:07;6.00;;;3.90;;
56075;SDS011;41951;49.022;12.066;2023-01-15T00:47:40;6.50;;;3.30;;
56075;SDS011;41951;49.022;12.066;2023-01-15T00:50:11;6.43;;;3.28;;
56075;SDS011;41951;49.022;12.066;2023-01-15T00:52:38;6.57;;;3.40;;
56075;SDS011;41951;49.022;12.066;2023-01-15T00:55:05;6.03;;;3.30;;
56075;SDS011;41951;49.022;12.066;2023-01-15T00:57:31;5.80;;;3.40;;
56075;SDS011;41951;49.022;12.066;2023-01-15T00:59:57;4.95;;;2.70;;
56075;SDS011;41951;49.022;12.066;2023-01-15T01:02:23;6.28;;;3.13;;
56075;SDS011;41951;49.022;12.066;2023-01-15T01:04:49;6.80;;;2.95;;
56075;SDS011;41951;49.022;12.066;2023-01-15T01:07:14;5.95;;;3.03;;
56075;SDS011;41951;49.022;12.066;2023-01-15T01:09:40;6.07;;;3.20;;
56075;SDS011;41951;49.022;12.066;2023-01-15T01:12:06;5.75;;;2.92;;
56075;SDS011;41951;49.022;12.066;2023-01-15T01:14:32;5.88;;;2.70;;
56075;SDS011;41951;49.022;12.066;2023-01-15T01:16:57;5.80;;;2.72;;
56075;SDS011;41951;49.022;12.066;2023-01-15T01:19:23;7.93;;;2.78;;
56075;SDS011;41951;49.022;12.066;2023-01-15T01:21:50;5.05;;;2.83;;
56075;SDS011;41951;49.022;12.066;2023-01-15T01:24:17;5.70;;;2.85;;
56075;SDS011;41951;49.022;12.066;2023-01-15T01:26:44;6.03;;;2.70;;
56075;SDS011;41951;49.022;12.066;2023-01-15T01:29:11;8.00;;;2.80;;
56075;SDS011;41951;49.022;12.066;2023-01-15T01:31:38;7.30;;;2.55;;
56075;SDS011;41951;49.022;12.066;2023-01-15T01:34:04;4.70;;;2.35;;
56075;SDS011;41951;49.022;12.066;2023-01-15T01:36:30;6.80;;;3.28;;
56075;SDS011;41951;49.022;12.066;2023-01-15T01:38:58;3.90;;;1.90;;
56075;SDS011;41951;49.022;12.066;2023-01-15T01:41:24;6.32;;;2.38;;
56075;SDS011;41951;49.022;12.066;2023-01-15T01:43:52;4.95;;;2.10;;
56075;SDS011;41951;49.022;12.066;2023-01-15T01:46:33;4.15;;;2.03;;
56075;SDS011;41951;49.022;12.066;2023-01-15T01:49:03;4.15;;;2.20;;
56075;SDS011;41951;49.022;12.066;2023-01-15T01:51:34;4.47;;;1.98;;
56075;SDS011;41951;49.022;12.066;2023-01-15T01:54:04;6.43;;;2.72;;
56075;SDS011;41951;49.022;12.066;2023-01-15T01:56:31;4.13;;;1.92;;
56075;SDS011;41951;49.022;12.066;2023-01-15T01:58:59;4.30;;;1.92;;
56075;SDS011;41951;49.022;12.066;2023-01-15T02:01:25;5.53;;;2.30;;
56075;SDS011;41951;49.022;12.066;2023-01-15T02:03:51;5.22;;;1.90;;
56075;SDS011;41951;49.022;12.066;2023-01-15T02:06:17;3.70;;;1.90;;
56075;SDS011;41951;49.022;12.066;2023-01-15T02:08:43;16.92;;;2.63;;
56075;SDS011;41951;49.022;12.066;2023-01-15T02:11:11;5.20;;;2.63;;
56075;SDS011;41951;49.022;12.066;2023-01-15T02:13:42;5.88;;;2.30;;
56075;SDS011;41951;49.022;12.066;2023-01-15T02:19:15;5.68;;;2.47;;
56075;SDS011;41951;49.022;12.066;2023-01-15T02:22:12;5.40;;;2.42;;
56075;SDS011;41951;49.022;12.066;2023-01-15T02:27:29;5.75;;;2.50;;
56075;SDS011;41951;49.022;12.066;2023-01-15T02:30:00;6.03;;;2.60;;
56075;SDS011;41951;49.022;12.066;2023-01-15T02:32:38;4.38;;;2.38;;
56075;SDS011;41951;49.022;12.066;2023-01-15T02:35:13;5.13;;;2.30;;
56075;SDS011;41951;49.022;12.066;2023-01-15T02:37:45;5.47;;;2.13;;
56075;SDS011;41951;49.022;12.066;2023-01-15T02:40:17;5.25;;;2.40;;
56075;SDS011;41951;49.022;12.066;2023-01-15T02:42:44;6.25;;;2.33;;
56075;SDS011;41951;49.022;12.066;2023-01-15T02:45:12;5.50;;;2.15;;
56075;SDS011;41951;49.022;12.066;2023-01-15T02:47:56;5.28;;;2.72;;
56075;SDS011;41951;49.022;12.066;2023-01-15T02:50:26;4.47;;;2.38;;
56075;SDS011;41951;49.022;12.066;2023-01-15T02:52:56;4.00;;;2.33;;
56075;SDS011;41951;49.022;12.066;2023-01-15T02:55:28;4.57;;;2.45;;
56075;SDS011;41951;49.022;12.066;2023-01-15T02:58:04;6.07;;;2.63;;
56075;SDS011;41951;49.022;12.066;2023-01-15T03:00:33;6.43;;;2.47;;
56075;SDS011;41951;49.022;12.066;2023-01-15T03:03:06;6.90;;;2.20;;
56075;SDS011;41951;49.022;12.066;2023-01-15T03:08:23;5.70;;;2.40;;
56075;SDS011;41951;49.022;12.066;2023-01-15T03:13:25;4.38;;;2.15;;
56075;SDS011;41951;49.022;12.066;2023-01-15T03:16:03;3.40;;;2.10;;
56075;SDS011;41951;49.022;12.066;2023-01-15T03:22:21;5.97;;;2.40;;
56075;SDS011;41951;49.022;12.066;2023-01-15T03:26:57;5.38;;;2.50;;
56075;SDS011;41951;49.022;12.066;2023-01-15T03:29:24;4.68;;;2.20;;
56075;SDS011;41951;49.022;12.066;2023-01-15T03:31:52;4.40;;;2.33;;
56075;SDS011;41951;49.022;12.066;2023-01-15T03:34:18;4.18;;;2.35;;
56075;SDS011;41951;49.022;12.066;2023-01-15T03:36:44;4.45;;;2.20;;
56075;SDS011;41951;49.022;12.066;2023-01-15T03:39:09;4.13;;;2.22;;
56075;SDS011;41951;49.022;12.066;2023-01-15T03:41:43;4.30;;;2.33;;
56075;SDS011;41951;49.022;12.066;2023-01-15T03:47:32;4.80;;;2.30;;
56075;SDS011;41951;49.022;12.066;2023-01-15T03:50:19;4.22;;;1.90;;
56075;SDS011;41951;49.022;12.066;2023-01-15T03:52:49;2.83;;;1.77;;
56075;SDS011;41951;49.022;12.066;2023-01-15T03:58:10;4.28;;;1.90;;
56075;SDS011;41951;49.022;12.066;2023-01-15T04:00:49;3.78;;;2.28;;
56075;SDS011;41951;49.022;12.066;2023-01-15T04:03:16;3.47;;;1.73;;
56075;SDS011;41951;49.022;12.066;2023-01-15T04:05:44;4.75;;;1.90;;
56075;SDS011;41951;49.022;12.066;2023-01-15T04:08:11;3.88;;;1.73;;
56075;SDS011;41951;49.022;12.066;2023-01-15T04:10:52;6.38;;;2.03;;
56075;SDS011;41951;49.022;12.066;2023-01-15T04:13:22;4.63;;;2.08;;
56075;SDS011;41951;49.022;12.066;2023-01-15T04:15:48;4.50;;;1.88;;
56075;SDS011;41951;49.022;12.066;2023-01-15T04:18:14;4.55;;;1.90;;
56075;SDS011;41951;49.022;12.066;2023-01-15T04:20:40;3.85;;;2.10;;
56075;SDS011;41951;49.022;12.066;2023-01-15T04:23:06;3.72;;;1.88;;
56075;SDS011;41951;49.022;12.066;2023-01-15T04:25:31;4.20;;;2.10;;
56075;SDS011;41951;49.022;12.066;2023-01-15T04:27:57;5.22;;;2.00;;
56075;SDS011;41951;49.022;12.066;2023-01-15T04:30:22;3.53;;;2.05;;
56075;SDS011;41951;49.022;12.066;2023-01-15T04:32:48;5.03;;;1.80;;
56075;SDS011;41951;49.022;12.066;2023-01-15T04:35:15;5.60;;;2.20;;
56075;SDS011;41951;49.022;12.066;2023-01-15T04:37:41;4.15;;;1.75;;
56075;SDS011;41951;49.022;12.066;2023-01-15T04:40:07;4.55;;;2.60;;
56075;SDS011;41951;49.022;12.066;2023-01-15T04:42:34;3.88;;;2.05;;
56075;SDS011;41951;49.022;12.066;2023-01-15T04:45:18;4.63;;;2.13;;
56075;SDS011;41951;49.022;12.066;2023-01-15T04:47:44;5.35;;;2.08;;
56075;SDS011;41951;49.022;12.066;2023-01-15T04:50:09;5.07;;;2.28;;
56075;SDS011;41951;49.022;12.066;2023-01-15T04:52:36;4.80;;;2.10;;
56075;SDS011;41951;49.022;12.066;2023-01-15T04:55:02;4.68;;;2.28;;
56075;SDS011;41951;49.022;12.066;2023-01-15T04:57:28;4.45;;;2.00;;
56075;SDS011;41951;49.022;12.066;2023-01-15T04:59:54;6.00;;;2.10;;
56075;SDS011;41951;49.022;12.066;2023-01-15T05:02:19;6.70;;;2.55;;
56075;SDS011;41951;49.022;12.066;2023-01-15T05:04:45;5.20;;;2.78;;
56075;SDS011;41951;49.022;12.066;2023-01-15T05:07:10;5.68;;;2.55;;
56075;SDS011;41951;49.022;12.066;2023-01-15T05:09:36;5.18;;;2.25;;
56075;SDS011;41951;49.022;12.066;2023-01-15T05:12:02;5.85;;;2.53;;
56075;SDS011;41951;49.022;12.066;2023-01-15T05:14:27;5.85;;;2.42;;
56075;SDS011;41951;49.022;12.066;2023-01-15T05:16:53;6.25;;;2.60;;
56075;SDS011;41951;49.022;12.066;2023-01-15T05:19:19;5.43;;;2.40;;
56075;SDS011;41951;49.022;12.066;2023-01-15T05:21:44;4.47;;;2.40;;
56075;SDS011;41951;49.022;12.066;2023-01-15T05:24:12;4.97;;;2.78;;
56075;SDS011;41951;49.022;12.066;2023-01-15T05:26:39;5.78;;;2.25;;
56075;SDS011;41951;49.022;12.066;2023-01-15T05:29:05;4.78;;;2.33;;
56075;SDS011;41951;49.022;12.066;2023-01-15T05:31:31;6.78;;;2.58;;
56075;SDS011;41951;49.022;12.066;2023-01-15T05:33:59;6.80;;;2.63;;
56075;SDS011;41951;49.022;12.066;2023-01-15T05:36:26;6.43;;;2.90;;
56075;SDS011;41951;49.022;12.066;2023-01-15T05:38:54;4.43;;;2.45;;
56075;SDS011;41951;49.022;12.066;2023-01-15T05:41:23;5.00;;;2.53;;
56075;SDS011;41951;49.022;12.066;2023-01-15T05:44:09;5.55;;;2.70;;
56075;SDS011;41951;49.022;12.066;2023-01-15T05:46:36;12.88;;;5.32;;
56075;SDS011;41951;49.022;12.066;2023-01-15T05:49:04;5.88;;;2.80;;
56075;SDS011;41951;49.022;12.066;2023-01-15T05:51:35;5.28;;;2.30;;
56075;SDS011;41951;49.022;12.066;2023-01-15T05:54:01;4.65;;;2.25;;
56075;SDS011;41951;49.022;12.066;2023-01-15T05:56:28;4.55;;;2.75;;
56075;SDS011;41951;49.022;12.066;2023-01-15T05:58:54;5.43;;;2.47;;
56075;SDS011;41951;49.022;12.066;2023-01-15T06:01:20;4.85;;;2.47;;
56075;SDS011;41951;49.022;12.066;2023-01-15T06:03:46;6.63;;;2.83;;
56075;SDS011;41951;49.022;12.066;2023-01-15T06:06:15;5.30;;;2.20;;
56075;SDS011;41951;49.022;12.066;2023-01-15T06:08:42;6.40;;;2.60;;
56075;SDS011;41951;49.022;12.066;2023-01-15T06:11:08;4.50;;;2.53;;
56075;SDS011;41951;49.022;12.066;2023-01-15T06:13:35;4.05;;;2.40;;
56075;SDS011;41951;49.022;12.066;2023-01-15T06:16:03;6.80;;;2.58;;
56075;SDS011;41951;49.022;12.066;2023-01-15T06:18:29;4.55;;;2.75;;
56075;SDS011;41951;49.022;12.066;2023-01-15T06:20:55;6.18;;;2.22;;
56075;SDS011;41951;49.022;12.066;2023-01-15T06:23:20;4.15;;;2.53;;
56075;SDS011;41951;49.022;12.066;2023-01-15T06:25:46;7.78;;;3.50;;
56075;SDS011;41951;49.022;12.066;2023-01-15T06:28:12;6.75;;;3.08;;
56075;SDS011;41951;49.022;12.066;2023-01-15T06:30:38;4.07;;;2.53;;
56075;SDS011;41951;49.022;12.066;2023-01-15T06:33:04;5.43;;;2.50;;
56075;SDS011;41951;49.022;12.066;2023-01-15T06:35:31;5.07;;;2.95;;
56075;SDS011;41951;49.022;12.066;2023-01-15T06:37:57;5.35;;;2.60;;
56075;SDS011;41951;49.022;12.066;2023-01-15T06:40:22;6.15;;;2.42;;
56075;SDS011;41951;49.022;12.066;2023-01-15T06:42:50;5.47;;;2.70;;
56075;SDS011;41951;49.022;12.066;2023-01-15T06:45:37;3.75;;;2.28;;
56075;SDS011;41951;49.022;12.066;2023-01-15T06:48:24;3.78;;;2.20;;
56075;SDS011;41951;49.022;12.066;2023-01-15T06:50:50;6.40;;;2.30;;
56075;SDS011;41951;49.022;12.066;2023-01-15T06:53:17;4.97;;;2.63;;
56075;SDS011;41951;49.022;12.066;2023-01-15T06:55:43;6.13;;;2.85;;
56075;SDS011;41951;49.022;12.066;2023-01-15T06:58:09;5.20;;;2.67;;
56075;SDS011;41951;49.022;12.066;2023-01-15T07:00:35;4.35;;;2.47;;
56075;SDS011;41951;49.022;12.066;2023-01-15T07:03:01;5.00;;;2.55;;
56075;SDS011;41951;49.022;12.066;2023-01-15T07:05:29;5.57;;;2.50;;
56075;SDS011;41951;49.022;12.066;2023-01-15T07:07:56;12.13;;;5.22;;
56075;SDS011;41951;49.022;12.066;2023-01-15T07:10:22;4.85;;;2.55;;
56075;SDS011;41951;49.022;12.066;2023-01-15T07:12:48;5.70;;;1.92;;
56075;SDS011;41951;49.022;12.066;2023-01-15T07:15:13;4.82;;;2.20;;
56075;SDS011;41951;49.022;12.066;2023-01-15T07:17:39;12.63;;;6.38;;
56075;SDS011;41951;49.022;12.066;2023-01-15T07:20:04;3.58;;;2.20;;
56075;SDS011;41951;49.022;12.066;2023-01-15T07:22:31;4.95;;;2.28;;
56075;SDS011;41951;49.022;12.066;2023-01-15T07:24:56;6.82;;;2.30;;
56075;SDS011;41951;49.022;12.066;2023-01-15T07:27:22;5.15;;;2.22;;
56075;SDS011;41951;49.022;12.066;2023-01-15T07:29:51;3.05;;;1.60;;
56075;SDS011;41951;49.022;12.066;2023-01-15T07:32:17;3.70;;;2.13;;
56075;SDS011;41951;49.022;12.066;2023-01-15T07:34:43;5.38;;;2.00;;
56075;SDS011;41951;49.022;12.066;2023-01-15T07:37:09;3.78;;;2.20;;
56075;SDS011;41951;49.022;12.066;2023-01-15T07:39:35;3.60;;;1.90;;
56075;SDS011;41951;49.022;12.066;2023-01-15T07:42:00;5.90;;;3.67;;
56075;SDS011;41951;49.022;12.066;2023-01-15T07:44:45;5.25;;;2.13;;
56075;SDS011;41951;49.022;12.066;2023-01-15T07:47:29;6.38;;;3.30;;
56075;SDS011;41951;49.022;12.066;2023-01-15T07:50:15;4.13;;;2.17;;
56075;SDS011;41951;49.022;12.066;2023-01-15T07:52:43;5.22;;;2.30;;
56075;SDS011;41951;49.022;12.066;2023-01-15T07:55:10;4.47;;;2.40;;
56075;SDS011;41951;49.022;12.066;2023-01-15T07:57:42;3.83;;;1.90;;
56075;SDS011;41951;49.022;12.066;2023-01-15T08:00:12;3.47;;;1.80;;
56075;SDS011;41951;49.022;12.066;2023-01-15T08:02:40;5.60;;;2.13;;
56075;SDS011;41951;49.022;12.066;2023-01-15T08:05:06;4.53;;;2.25;;
56075;SDS011;41951;49.022;12.066;2023-01-15T08:07:39;4.28;;;2.17;;
56075;SDS011;41951;49.022;12.066;2023-01-15T08:10:06;4.00;;;1.92;;
56075;SDS011;41951;49.022;12.066;2023-01-15T08:12:33;4.18;;;2.17;;
56075;SDS011;41951;49.022;12.066;2023-01-15T08:15:17;3.97;;;1.77;;
56075;SDS011;41951;49.022;12.066;2023-01-15T08:17:43;5.30;;;2.35;;
56075;SDS011;41951;49.022;12.066;2023-01-15T08:20:12;5.00;;;2.15;;
56075;SDS011;41951;49.022;12.066;2023-01-15T08:22:38;5.15;;;2.28;;
56075;SDS011;41951;49.022;12.066;2023-01-15T08:25:04;6.93;;;2.10;;
56075;SDS011;41951;49.022;12.066;2023-01-15T08:27:30;5.97;;;2.45;;
56075;SDS011;41951;49.022;12.066;2023-01-15T08:29:56;4.55;;;2.00;;
56075;SDS011;41951;49.022;12.066;2023-01-15T08:32:22;12.32;;;5.72;;
56075;SDS011;41951;49.022;12.066;2023-01-15T08:34:49;11.27;;;6.32;;
56075;SDS011;41951;49.022;12.066;2023-01-15T08:37:14;5.35;;;2.90;;
56075;SDS011;41951;49.022;12.066;2023-01-15T08:39:40;4.60;;;2.78;;
56075;SDS011;41951;49.022;12.066;2023-01-15T08:42:05;4.22;;;2.30;;
56075;SDS011;41951;49.022;12.066;2023-01-15T08:44:31;5.05;;;2.13;;
56075;SDS011;41951;49.022;12.066;2023-01-15T08:46:57;5.25;;;1.83;;
56075;SDS011;41951;49.022;12.066;2023-01-15T08:49:22;4.93;;;2.10;;
56075;SDS011;41951;49.022;12.066;2023-01-15T08:51:48;4.95;;;1.90;;
56075;SDS011;41951;49.022;12.066;2023-01-15T08:54:16;4.45;;;2.00;;
56075;SDS011;41951;49.022;12.066;2023-01-15T08:56:45;3.97;;;1.80;;
56075;SDS011;41951;49.022;12.066;2023-01-15T08:59:11;4.63;;;2.00;;
56075;SDS011;41951;49.022;12.066;2023-01-15T09:01:53;5.22;;;2.50;;
56075;SDS011;41951;49.022;12.066;2023-01-15T09:04:20;7.03;;;2.97;;
56075;SDS011;41951;49.022;12.066;2023-01-15T09:06:46;4.43;;;2.40;;
56075;SDS011;41951;49.022;12.066;2023-01-15T09:09:12;5.85;;;2.17;;
56075;SDS011;41951;49.022;12.066;2023-01-15T09:11:39;7.68;;;2.50;;
56075;SDS011;41951;49.022;12.066;2023-01-15T09:14:08;4.75;;;2.30;;
56075;SDS011;41951;49.022;12.066;2023-01-15T09:16:35;6.00;;;2.30;;
56075;SDS011;41951;49.022;12.066;2023-01-15T09:19:02;4.40;;;2.40;;
56075;SDS011;41951;49.022;12.066;2023-01-15T09:21:28;7.68;;;2.63;;
56075;SDS011;41951;49.022;12.066;2023-01-15T09:23:54;5.13;;;1.80;;
56075;SDS011;41951;49.022;12.066;2023-01-15T09:26:30;3.17;;;1.70;;
56075;SDS011;41951;49.022;12.066;2023-01-15T09:28:58;4.47;;;2.17;;
56075;SDS011;41951;49.022;12.066;2023-01-15T09:31:25;4.45;;;2.15;;
56075;SDS011;41951;49.022;12.066;2023-01-15T09:33:51;4.75;;;2.10;;
56075;SDS011;41951;49.022;12.066;2023-01-15T09:36:18;1.90;;;1.00;;
56075;SDS011;41951;49.022;12.066;2023-01-15T09:38:48;1.02;;;0.60;;
56075;SDS011;41951;49.022;12.066;2023-01-15T09:41:17;0.63;;;0.50;;
56075;SDS011;41951;49.022;12.066;2023-01-15T09:47:10;2.33;;;0.75;;
56075;SDS011;41951;49.022;12.066;2023-01-15T09:49:50;1.85;;;1.10;;
56075;SDS011;41951;49.022;12.066;2023-01-15T09:55:13;12.70;;;7.18;;
56075;SDS011;41951;49.022;12.066;2023-01-15T09:57:39;1.30;;;0.70;;
56075;SDS011;41951;49.022;12.066;2023-01-15T10:00:06;2.15;;;0.60;;
56075;SDS011;41951;49.022;12.066;2023-01-15T10:08:01;0.30;;;0.30;;
56075;SDS011;41951;49.022;12.066;2023-01-15T10:15:50;0.32;;;0.32;;
56075;SDS011;41951;49.022;12.066;2023-01-15T10:18:16;0.30;;;0.30;;
56075;SDS011;41951;49.022;12.066;2023-01-15T10:31:36;0.55;;;0.55;;
56075;SDS011;41951;49.022;12.066;2023-01-15T10:42:51;0.50;;;0.50;;
56075;SDS011;41951;49.022;12.066;2023-01-15T10:45:40;0.52;;;0.50;;
56075;SDS011;41951;49.022;12.066;2023-01-15T10:48:33;1.75;;;0.77;;
56075;SDS011;41951;49.022;12.066;2023-01-15T10:54:14;0.63;;;0.52;;
56075;SDS011;41951;49.022;12.066;2023-01-15T10:57:06;0.85;;;0.52;;
56075;SDS011;41951;49.022;12.066;2023-01-15T10:59:45;1.33;;;0.80;;
56075;SDS011;41951;49.022;12.066;2023-01-15T11:02:39;0.57;;;0.57;;
56075;SDS011;41951;49.022;12.066;2023-01-15T11:05:15;1.50;;;0.52;;
56075;SDS011;41951;49.022;12.066;2023-01-15T11:07:45;0.68;;;0.60;;
56075;SDS011;41951;49.022;12.066;2023-01-15T11:10:16;1.48;;;0.60;;
56075;SDS011;41951;49.022;12.066;2023-01-15T11:12:53;1.65;;;0.60;;
56075;SDS011;41951;49.022;12.066;2023-01-15T11:15:43;0.60;;;0.60;;
56075;SDS011;41951;49.022;12.066;2023-01-15T11:18:34;0.83;;;0.60;;
56075;SDS011;41951;49.022;12.066;2023-01-15T11:21:23;1.00;;;0.73;;
56075;SDS011;41951;49.022;12.066;2023-01-15T11:23:49;1.23;;;0.80;;
56075;SDS011;41951;49.022;12.066;2023-01-15T11:26:29;0.57;;;0.57;;
56075;SDS011;41951;49.022;12.066;2023-01-15T11:28:57;0.77;;;0.60;;
56075;SDS011;41951;49.022;12.066;2023-01-15T11:31:35;0.95;;;0.60;;
56075;SDS011;41951;49.022;12.066;2023-01-15T11:34:03;3.20;;;0.93;;
56075;SDS011;41951;49.022;12.066;2023-01-15T11:36:30;2.28;;;0.90;;
56075;SDS011;41951;49.022;12.066;2023-01-15T11:38:57;1.50;;;0.80;;
56075;SDS011;41951;49.022;12.066;2023-01-15T11:41:27;0.82;;;0.60;;
56075;SDS011;41951;49.022;12.066;2023-01-15T11:44:16;1.33;;;0.80;;
56075;SDS011;41951;49.022;12.066;2023-01-15T11:47:02;1.55;;;0.70;;
56075;SDS011;41951;49.022;12.066;2023-01-15T11:49:53;1.02;;;0.55;;
56075;SDS011;41951;49.022;12.066;2023-01-15T11:52:40;0.98;;;0.60;;
56075;SDS011;41951;49.022;12.066;2023-01-15T11:55:12;1.25;;;0.50;;
56075;SDS011;41951;49.022;12.066;2023-01-15T11:57:43;0.75;;;0.50;;
56075;SDS011;41951;49.022;12.066;2023-01-15T12:00:26;0.85;;;0.55;;
56075;SDS011;41951;49.022;12.066;2023-01-15T12:02:56;0.57;;;0.40;;
56075;SDS011;41951;49.022;12.066;2023-01-15T12:05:28;0.50;;;0.50;;
56075;SDS011;41951;49.022;12.066;2023-01-15T12:07:56;0.73;;;0.50;;
56075;SDS011;41951;49.022;12.066;2023-01-15T12:10:36;0.73;;;0.65;;
56075;SDS011;41951;49.022;12.066;2023-01-15T12:13:31;1.80;;;1.00;;
56075;SDS011;41951;49.022;12.066;2023-01-15T12:32:44;2.28;;;0.70;;
56075;SDS011;41951;49.022;12.066;2023-01-15T12:35:26;1.30;;;0.80;;
56075;SDS011;41951;49.022;12.066;2023-01-15T12:38:04;0.95;;;0.50;;
56075;SDS011;41951;49.022;12.066;2023-01-15T12:40:39;0.77;;;0.60;;
56075;SDS011;41951;49.022;12.066;2023-01-15T12:43:20;0.50;;;0.50;;
56075;SDS011;41951;49.022;12.066;2023-01-15T12:46:09;0.80;;;0.40;;
56075;SDS011;41951;49.022;12.066;2023-01-15T12:48:44;1.83;;;1.02;;
56075;SDS011;41951;49.022;12.066;2023-01-15T12:54:16;1.88;;;1.00;;
56075;SDS011;41951;49.022;12.066;2023-01-15T12:56:59;1.33;;;0.80;;
56075;SDS011;41951;49.022;12.066;2023-01-15T12:59:34;1.92;;;0.95;;
56075;SDS011;41951;49.022;12.066;2023-01-15T13:07:52;0.95;;;0.73;;
56075;SDS011;41951;49.022;12.066;2023-01-15T13:10:25;2.55;;;0.88;;
56075;SDS011;41951;49.022;12.066;2023-01-15T13:12:54;2.63;;;0.88;;
56075;SDS011;41951;49.022;12.066;2023-01-15T13:15:25;0.60;;;0.60;;
56075;SDS011;41951;49.022;12.066;2023-01-15T13:20:44;0.95;;;0.50;;
56075;SDS011;41951;49.022;12.066;2023-01-15T13:23:20;1.48;;;1.00;;
56075;SDS011;41951;49.022;12.066;2023-01-15T13:26:10;1.20;;;0.80;;
56075;SDS011;41951;49.022;12.066;2023-01-15T13:31:57;1.10;;;0.70;;
56075;SDS011;41951;49.022;12.066;2023-01-15T13:34:34;1.23;;;0.80;;
56075;SDS011;41951;49.022;12.066;2023-01-15T13:39:41;0.80;;;0.60;;
56075;SDS011;41951;49.022;12.066;2023-01-15T13:42:16;1.95;;;0.60;;
56075;SDS011;41951;49.022;12.066;2023-01-15T13:45:39;0.70;;;0.60;;
56075;SDS011;41951;49.022;12.066;2023-01-15T13:48:09;1.50;;;0.90;;
56075;SDS011;41951;49.022;12.066;2023-01-15T13:50:52;0.60;;;0.50;;
56075;SDS011;41951;49.022;12.066;2023-01-15T13:53:23;0.82;;;0.50;;
56075;SDS011;41951;49.022;12.066;2023-01-15T13:55:57;0.88;;;0.68;;
56075;SDS011;41951;49.022;12.066;2023-01-15T13:58:29;0.95;;;0.50;;
56075;SDS011;41951;49.022;12.066;2023-01-15T14:03:51;0.60;;;0.40;;
56075;SDS011;41951;49.022;12.066;2023-01-15T14:09:09;0.88;;;0.63;;
56075;SDS011;41951;49.022;12.066;2023-01-15T14:22:48;0.70;;;0.40;;
56075;SDS011;41951;49.022;12.066;2023-01-15T14:28:33;0.60;;;0.60;;
56075;SDS011;41951;49.022;12.066;2023-01-15T14:31:13;1.05;;;0.70;;
56075;SDS011;41951;49.022;12.066;2023-01-15T14:33:55;1.77;;;0.75;;
56075;SDS011;41951;49.022;12.066;2023-01-15T14:36:35;1.08;;;0.80;;
56075;SDS011;41951;49.022;12.066;2023-01-15T14:39:28;1.63;;;0.90;;
56075;SDS011;41951;49.022;12.066;2023-01-15T14:42:05;1.33;;;0.70;;
56075;SDS011;41951;49.022;12.066;2023-01-15T14:47:48;1.30;;;0.70;;
56075;SDS011;41951;49.022;12.066;2023-01-15T14:52:59;0.95;;;0.70;;
56075;SDS011;41951;49.022;12.066;2023-01-15T14:55:31;1.65;;;0.57;;
56075;SDS011;41951;49.022;12.066;2023-01-15T14:58:01;1.55;;;0.60;;
56075;SDS011;41951;49.022;12.066;2023-01-15T15:00:34;0.63;;;0.50;;
56075;SDS011;41951;49.022;12.066;2023-01-15T15:03:04;0.77;;;0.50;;
56075;SDS011;41951;49.022;12.066;2023-01-15T15:05:40;1.75;;;0.60;;
56075;SDS011;41951;49.022;12.066;2023-01-15T15:08:10;3.58;;;1.70;;
56075;SDS011;41951;49.022;12.066;2023-01-15T15:10:42;2.33;;;0.85;;
56075;SDS011;41951;49.022;12.066;2023-01-15T15:13:21;2.97;;;1.30;;
56075;SDS011;41951;49.022;12.066;2023-01-15T15:16:10;4.75;;;1.15;;
56075;SDS011;41951;49.022;12.066;2023-01-15T15:18:52;3.53;;;1.30;;
56075;SDS011;41951;49.022;12.066;2023-01-15T15:21:40;1.73;;;0.90;;
56075;SDS011;41951;49.022;12.066;2023-01-15T15:24:27;0.88;;;0.60;;
56075;SDS011;41951;49.022;12.066;2023-01-15T15:26:56;14.18;;;7.55;;
56075;SDS011;41951;49.022;12.066;2023-01-15T15:29:42;4.85;;;2.42;;
56075;SDS011;41951;49.022;12.066;2023-01-15T15:32:10;0.60;;;0.60;;
56075;SDS011;41951;49.022;12.066;2023-01-15T15:34:42;0.85;;;0.35;;
56075;SDS011;41951;49.022;12.066;2023-01-15T15:37:14;1.60;;;0.65;;
56075;SDS011;41951;49.022;12.066;2023-01-15T15:40:00;0.60;;;0.60;;
56075;SDS011;41951;49.022;12.066;2023-01-15T15:43:38;1.65;;;0.70;;
56075;SDS011;41951;49.022;12.066;2023-01-15T15:46:20;1.10;;;0.73;;
56075;SDS011;41951;49.022;12.066;2023-01-15T15:49:07;1.83;;;0.65;;
56075;SDS011;41951;49.022;12.066;2023-01-15T15:51:36;1.55;;;0.47;;
56075;SDS011;41951;49.022;12.066;2023-01-15T15:54:15;0.77;;;0.52;;
56075;SDS011;41951;49.022;12.066;2023-01-15T15:56:45;1.13;;;0.60;;
56075;SDS011;41951;49.022;12.066;2023-01-15T15:59:30;2.80;;;0.65;;
56075;SDS011;41951;49.022;12.066;2023-01-15T16:01:59;1.33;;;0.60;;
56075;SDS011;41951;49.022;12.066;2023-01-15T16:04:42;1.73;;;0.80;;
56075;SDS011;41951;49.022;12.066;2023-01-15T16:07:13;1.20;;;0.73;;
56075;SDS011;41951;49.022;12.066;2023-01-15T16:09:46;1.42;;;0.80;;
56075;SDS011;41951;49.022;12.066;2023-01-15T16:12:14;1.20;;;0.52;;
56075;SDS011;41951;49.022;12.066;2023-01-15T16:14:42;1.42;;;0.65;;
56075;SDS011;41951;49.022;12.066;2023-01-15T16:17:09;1.83;;;0.77;;
56075;SDS011;41951;49.022;12.066;2023-01-15T16:19:38;4.38;;;1.10;;
56075;SDS011;41951;49.022;12.066;2023-01-15T16:22:06;1.20;;;0.73;;
56075;SDS011;41951;49.022;12.066;2023-01-15T16:24:34;1.73;;;0.90;;
56075;SDS011;41951;49.022;12.066;2023-01-15T16:27:04;1.15;;;0.80;;
56075;SDS011;41951;49.022;12.066;2023-01-15T16:29:40;2.08;;;0.80;;
56075;SDS011;41951;49.022;12.066;2023-01-15T16:32:22;2.28;;;0.70;;
56075;SDS011;41951;49.022;12.066;2023-01-15T16:34:56;0.90;;;0.90;;
56075;SDS011;41951;49.022;12.066;2023-01-15T16:37:30;3.47;;;0.70;;
56075;SDS011;41951;49.022;12.066;2023-01-15T16:39:56;4.72;;;0.88;;
56075;SDS011;41951;49.022;12.066;2023-01-15T16:42:34;3.10;;;1.00;;
56075;SDS011;41951;49.022;12.066;2023-01-15T16:45:05;3.03;;;1.02;;
56075;SDS011;41951;49.022;12.066;2023-01-15T16:47:59;2.42;;;1.08;;
56075;SDS011;41951;49.022;12.066;2023-01-15T16:50:32;4.13;;;1.70;;
56075;SDS011;41951;49.022;12.066;2023-01-15T16:53:00;1.50;;;1.02;;
56075;SDS011;41951;49.022;12.066;2023-01-15T16:55:34;2.55;;;0.90;;
56075;SDS011;41951;49.022;12.066;2023-01-15T17:00:34;2.47;;;1.20;;
56075;SDS011;41951;49.022;12.066;2023-01-15T17:03:00;4.50;;;1.05;;